source: josm/trunk/data_nodist/2094047.gpx @ 12052

Last change on this file since 12052 was 9384, checked in by simon04, 3 years ago

Add unit test for CorrelateGpxWithImages

File size: 57.7 KB
Line 
1<?xml version="1.0" encoding="UTF-8" standalone="no" ?>
2<gpx xmlns="http://www.topografix.com/GPX/1/1" creator="MapSource 6.16.3" version="1.1" xmlns:xsi="http://www.w3.org/2001/XMLSchema-instance" xsi:schemaLocation="http://www.topografix.com/GPX/1/1 http://www.topografix.com/GPX/1/1/gpx.xsd">
3
4  <metadata>
5    <link href="http://www.garmin.com">
6      <text>Garmin International</text>
7    </link>
8    <time>2016-01-09T19:37:38Z</time>
9    <bounds maxlat="47.201499743387103" maxlon="8.798418799415231" minlat="47.18490038998425" minlon="8.77192972227931"/>
10  </metadata>
11
12  <wpt lat="47.192017380148172" lon="8.795854020863771">
13    <ele>480</ele>
14    <time>2016-01-09T19:29:38Z</time>
15    <name>Schranke</name>
16    <cmt>Pfad</cmt>
17    <desc>Pfad</desc>
18    <sym>Toll Booth</sym>
19    <extensions>
20      <gpxx:WaypointExtension xmlns:gpxx="http://www.garmin.com/xmlschemas/GpxExtensions/v3">
21        <gpxx:DisplayMode>SymbolAndName</gpxx:DisplayMode>
22      </gpxx:WaypointExtension>
23    </extensions>
24  </wpt>
25
26  <trk>
27    <name>2016-01-03 20:40:14</name>
28    <extensions>
29      <gpxx:TrackExtension xmlns:gpxx="http://www.garmin.com/xmlschemas/GpxExtensions/v3">
30        <gpxx:DisplayColor>Black</gpxx:DisplayColor>
31      </gpxx:TrackExtension>
32    </extensions>
33    <trkseg>
34      <trkpt lat="47.19286847859621" lon="8.79732714034617">
35        <ele>471.86000000000001</ele>
36        <time>2016-01-03T11:59:58Z</time>
37      </trkpt>
38      <trkpt lat="47.192921955138445" lon="8.797342479228973">
39        <ele>471.43000000000001</ele>
40        <time>2016-01-03T11:59:59Z</time>
41      </trkpt>
42      <trkpt lat="47.192975012585521" lon="8.797344239428639">
43        <ele>470.69</ele>
44        <time>2016-01-03T12:00:00Z</time>
45      </trkpt>
46      <trkpt lat="47.193027399480343" lon="8.797332588583231">
47        <ele>470.94</ele>
48        <time>2016-01-03T12:00:01Z</time>
49      </trkpt>
50      <trkpt lat="47.193073416128755" lon="8.797307442873716">
51        <ele>471.5</ele>
52        <time>2016-01-03T12:00:02Z</time>
53      </trkpt>
54      <trkpt lat="47.193113481625915" lon="8.797272993251681">
55        <ele>471.67000000000002</ele>
56        <time>2016-01-03T12:00:03Z</time>
57      </trkpt>
58      <trkpt lat="47.193135609850287" lon="8.797232424840331">
59        <ele>471.58999999999997</ele>
60        <time>2016-01-03T12:00:04Z</time>
61      </trkpt>
62      <trkpt lat="47.193336607888341" lon="8.796738646924496">
63        <ele>472.44999999999999</ele>
64        <time>2016-01-03T12:00:15Z</time>
65      </trkpt>
66      <trkpt lat="47.193504832684994" lon="8.796404711902142">
67        <ele>472.54000000000002</ele>
68        <time>2016-01-03T12:00:22Z</time>
69      </trkpt>
70      <trkpt lat="47.19353936612606" lon="8.79635970108211">
71        <ele>472.45999999999998</ele>
72        <time>2016-01-03T12:00:23Z</time>
73      </trkpt>
74      <trkpt lat="47.193818986415863" lon="8.796017384156585">
75        <ele>471.38</ele>
76        <time>2016-01-03T12:00:30Z</time>
77      </trkpt>
78      <trkpt lat="47.193866763263941" lon="8.795985281467438">
79        <ele>471.26999999999998</ele>
80        <time>2016-01-03T12:00:31Z</time>
81      </trkpt>
82      <trkpt lat="47.193917976692319" lon="8.795968098565936">
83        <ele>471.36000000000001</ele>
84        <time>2016-01-03T12:00:32Z</time>
85      </trkpt>
86      <trkpt lat="47.194744180887938" lon="8.795836586505175">
87        <ele>473.19999999999999</ele>
88        <time>2016-01-03T12:00:50Z</time>
89      </trkpt>
90      <trkpt lat="47.195586981251836" lon="8.795750420540571">
91        <ele>475.06</ele>
92        <time>2016-01-03T12:01:09Z</time>
93      </trkpt>
94      <trkpt lat="47.19563358463347" lon="8.795769028365612">
95        <ele>474.75</ele>
96        <time>2016-01-03T12:01:10Z</time>
97      </trkpt>
98      <trkpt lat="47.195677170529962" lon="8.795795682817698">
99        <ele>474.62</ele>
100        <time>2016-01-03T12:01:11Z</time>
101      </trkpt>
102      <trkpt lat="47.195715978741646" lon="8.795830467715859">
103        <ele>474.74000000000001</ele>
104        <time>2016-01-03T12:01:12Z</time>
105      </trkpt>
106      <trkpt lat="47.195750931277871" lon="8.795875981450081">
107        <ele>474.06</ele>
108        <time>2016-01-03T12:01:13Z</time>
109      </trkpt>
110      <trkpt lat="47.195781692862511" lon="8.795927111059427">
111        <ele>474</ele>
112        <time>2016-01-03T12:01:14Z</time>
113      </trkpt>
114      <trkpt lat="47.195808347314596" lon="8.795980839058757">
115        <ele>474.58999999999997</ele>
116        <time>2016-01-03T12:01:15Z</time>
117      </trkpt>
118      <trkpt lat="47.195833241567016" lon="8.796036075800657">
119        <ele>474.81999999999999</ele>
120        <time>2016-01-03T12:01:16Z</time>
121      </trkpt>
122      <trkpt lat="47.196286031976342" lon="8.797110635787249">
123        <ele>476.29000000000002</ele>
124        <time>2016-01-03T12:01:35Z</time>
125      </trkpt>
126      <trkpt lat="47.196589959785342" lon="8.797826115041971">
127        <ele>478.48000000000002</ele>
128        <time>2016-01-03T12:01:50Z</time>
129      </trkpt>
130      <trkpt lat="47.197033865377307" lon="8.798356018960476">
131        <ele>481.02999999999997</ele>
132        <time>2016-01-03T12:02:06Z</time>
133      </trkpt>
134      <trkpt lat="47.197236875072122" lon="8.798418799415231">
135        <ele>480</ele>
136        <time>2016-01-03T12:02:12Z</time>
137      </trkpt>
138      <trkpt lat="47.197278868407011" lon="8.79838845692575">
139        <ele>479.58999999999997</ele>
140        <time>2016-01-03T12:02:13Z</time>
141      </trkpt>
142      <trkpt lat="47.197315413504839" lon="8.798339758068323">
143        <ele>478.99000000000001</ele>
144        <time>2016-01-03T12:02:14Z</time>
145      </trkpt>
146      <trkpt lat="47.197333350777626" lon="8.798282761126757">
147        <ele>479.58999999999997</ele>
148        <time>2016-01-03T12:02:15Z</time>
149      </trkpt>
150      <trkpt lat="47.19734919257462" lon="8.798161642625928">
151        <ele>481.18000000000001</ele>
152        <time>2016-01-03T12:02:18Z</time>
153      </trkpt>
154      <trkpt lat="47.197348270565271" lon="8.798118894919753">
155        <ele>481.88</ele>
156        <time>2016-01-03T12:02:20Z</time>
157      </trkpt>
158      <trkpt lat="47.197305858135223" lon="8.798028873279691">
159        <ele>483.11000000000001</ele>
160        <time>2016-01-03T12:02:24Z</time>
161      </trkpt>
162      <trkpt lat="47.197276437655091" lon="8.797974558547139">
163        <ele>484.49000000000001</ele>
164        <time>2016-01-03T12:02:27Z</time>
165      </trkpt>
166      <trkpt lat="47.197201587259769" lon="8.797768447548151">
167        <ele>486.88</ele>
168        <time>2016-01-03T12:02:35Z</time>
169      </trkpt>
170      <trkpt lat="47.197086336091161" lon="8.797464016824961">
171        <ele>488.05000000000001</ele>
172        <time>2016-01-03T12:02:48Z</time>
173      </trkpt>
174      <trkpt lat="47.197070075199008" lon="8.79741758108139">
175        <ele>487.76999999999998</ele>
176        <time>2016-01-03T12:02:51Z</time>
177      </trkpt>
178      <trkpt lat="47.197029171511531" lon="8.797250529751182">
179        <ele>488.95999999999998</ele>
180        <time>2016-01-03T12:02:57Z</time>
181      </trkpt>
182      <trkpt lat="47.196998996660113" lon="8.797172158956528">
183        <ele>488.36000000000001</ele>
184        <time>2016-01-03T12:03:01Z</time>
185      </trkpt>
186      <trkpt lat="47.196912243962288" lon="8.796978034079075">
187        <ele>488.35000000000002</ele>
188        <time>2016-01-03T12:03:09Z</time>
189      </trkpt>
190      <trkpt lat="47.196905454620719" lon="8.796931263059378">
191        <ele>487.19</ele>
192        <time>2016-01-03T12:03:10Z</time>
193      </trkpt>
194      <trkpt lat="47.196905957534909" lon="8.796886671334505">
195        <ele>487.63999999999999</ele>
196        <time>2016-01-03T12:03:11Z</time>
197      </trkpt>
198      <trkpt lat="47.196905119344592" lon="8.796837385743856">
199        <ele>487.55000000000001</ele>
200        <time>2016-01-03T12:03:12Z</time>
201      </trkpt>
202      <trkpt lat="47.196905622258782" lon="8.796793716028333">
203        <ele>488.39999999999998</ele>
204        <time>2016-01-03T12:03:13Z</time>
205      </trkpt>
206      <trkpt lat="47.196887601166964" lon="8.796751135960221">
207        <ele>489.18000000000001</ele>
208        <time>2016-01-03T12:03:15Z</time>
209      </trkpt>
210      <trkpt lat="47.196889277547598" lon="8.796689361333847">
211        <ele>490.73000000000002</ele>
212        <time>2016-01-03T12:03:18Z</time>
213      </trkpt>
214      <trkpt lat="47.196868155151606" lon="8.796474533155561">
215        <ele>491.24000000000001</ele>
216        <time>2016-01-03T12:03:33Z</time>
217      </trkpt>
218      <trkpt lat="47.19686932861805" lon="8.796442430466414">
219        <ele>490.25</ele>
220        <time>2016-01-03T12:03:34Z</time>
221      </trkpt>
222      <trkpt lat="47.196868490427732" lon="8.796406639739871">
223        <ele>490.00999999999999</ele>
224        <time>2016-01-03T12:03:35Z</time>
225      </trkpt>
226      <trkpt lat="47.196873016655445" lon="8.796368166804314">
227        <ele>489.54000000000002</ele>
228        <time>2016-01-03T12:03:36Z</time>
229      </trkpt>
230      <trkpt lat="47.196879051625729" lon="8.796329610049725">
231        <ele>489.66000000000003</ele>
232        <time>2016-01-03T12:03:37Z</time>
233      </trkpt>
234      <trkpt lat="47.196886762976646" lon="8.796280743554235">
235        <ele>489.06</ele>
236        <time>2016-01-03T12:03:38Z</time>
237      </trkpt>
238      <trkpt lat="47.196957757696509" lon="8.795829126611352">
239        <ele>490.08999999999997</ele>
240        <time>2016-01-03T12:03:48Z</time>
241      </trkpt>
242      <trkpt lat="47.196992877870798" lon="8.795709516853094">
243        <ele>489.41000000000003</ele>
244        <time>2016-01-03T12:03:52Z</time>
245      </trkpt>
246      <trkpt lat="47.196985501796007" lon="8.795667607337236">
247        <ele>489.17000000000002</ele>
248        <time>2016-01-03T12:03:53Z</time>
249      </trkpt>
250      <trkpt lat="47.196976449340582" lon="8.795624608173966">
251        <ele>488.87</ele>
252        <time>2016-01-03T12:03:54Z</time>
253      </trkpt>
254      <trkpt lat="47.196968905627728" lon="8.795590326189995">
255        <ele>489.37</ele>
256        <time>2016-01-03T12:03:55Z</time>
257      </trkpt>
258      <trkpt lat="47.196966642513871" lon="8.795558391138911">
259        <ele>488.94999999999999</ele>
260        <time>2016-01-03T12:03:56Z</time>
261      </trkpt>
262      <trkpt lat="47.196952560916543" lon="8.795536765828729">
263        <ele>488.93000000000001</ele>
264        <time>2016-01-03T12:03:57Z</time>
265      </trkpt>
266      <trkpt lat="47.196956500411034" lon="8.795507680624723">
267        <ele>488.88999999999999</ele>
268        <time>2016-01-03T12:03:58Z</time>
269      </trkpt>
270      <trkpt lat="47.196958595886827" lon="8.79548110999167">
271        <ele>488.86000000000001</ele>
272        <time>2016-01-03T12:03:59Z</time>
273      </trkpt>
274      <trkpt lat="47.196969073265791" lon="8.795452527701855">
275        <ele>489.19999999999999</ele>
276        <time>2016-01-03T12:04:00Z</time>
277      </trkpt>
278      <trkpt lat="47.196979885920882" lon="8.79541271366179">
279        <ele>489.29000000000002</ele>
280        <time>2016-01-03T12:04:01Z</time>
281      </trkpt>
282      <trkpt lat="47.196987261995673" lon="8.795355297625065">
283        <ele>488.95999999999998</ele>
284        <time>2016-01-03T12:04:02Z</time>
285      </trkpt>
286      <trkpt lat="47.196989608928561" lon="8.795302575454116">
287        <ele>489.10000000000002</ele>
288        <time>2016-01-03T12:04:03Z</time>
289      </trkpt>
290      <trkpt lat="47.196909813210368" lon="8.79494265653193">
291        <ele>492.19</ele>
292        <time>2016-01-03T12:04:14Z</time>
293      </trkpt>
294      <trkpt lat="47.196966223418713" lon="8.794532027095556">
295        <ele>492.12</ele>
296        <time>2016-01-03T12:04:25Z</time>
297      </trkpt>
298      <trkpt lat="47.196977371349931" lon="8.794502858072519">
299        <ele>493.06999999999999</ele>
300        <time>2016-01-03T12:04:26Z</time>
301      </trkpt>
302      <trkpt lat="47.196992123499513" lon="8.794450974091888">
303        <ele>492.58999999999997</ele>
304        <time>2016-01-03T12:04:27Z</time>
305      </trkpt>
306      <trkpt lat="47.196994051337242" lon="8.794399006292224">
307        <ele>492.38999999999999</ele>
308        <time>2016-01-03T12:04:28Z</time>
309      </trkpt>
310      <trkpt lat="47.196988603100181" lon="8.794350139796734">
311        <ele>492.94</ele>
312        <time>2016-01-03T12:04:29Z</time>
313      </trkpt>
314      <trkpt lat="47.196982149034739" lon="8.794298926368356">
315        <ele>492.47000000000003</ele>
316        <time>2016-01-03T12:04:30Z</time>
317      </trkpt>
318      <trkpt lat="47.196977371349931" lon="8.794246790930629">
319        <ele>492.50999999999999</ele>
320        <time>2016-01-03T12:04:31Z</time>
321      </trkpt>
322      <trkpt lat="47.196982065215707" lon="8.794189291074872">
323        <ele>492.73000000000002</ele>
324        <time>2016-01-03T12:04:32Z</time>
325      </trkpt>
326      <trkpt lat="47.196985417976975" lon="8.794133719056845">
327        <ele>492.63</ele>
328        <time>2016-01-03T12:04:33Z</time>
329      </trkpt>
330      <trkpt lat="47.196987681090832" lon="8.794077644124627">
331        <ele>493</ele>
332        <time>2016-01-03T12:04:34Z</time>
333      </trkpt>
334      <trkpt lat="47.196991369128227" lon="8.794022323563695">
335        <ele>493.00999999999999</ele>
336        <time>2016-01-03T12:04:35Z</time>
337      </trkpt>
338      <trkpt lat="47.196987848728895" lon="8.793976558372378">
339        <ele>493.19999999999999</ele>
340        <time>2016-01-03T12:04:36Z</time>
341      </trkpt>
342      <trkpt lat="47.196985501796007" lon="8.793926937505603">
343        <ele>493.18000000000001</ele>
344        <time>2016-01-03T12:04:37Z</time>
345      </trkpt>
346      <trkpt lat="47.196980556473136" lon="8.793885698541999">
347        <ele>493</ele>
348        <time>2016-01-03T12:04:38Z</time>
349      </trkpt>
350      <trkpt lat="47.196983071044087" lon="8.793837334960699">
351        <ele>493.20999999999998</ele>
352        <time>2016-01-03T12:04:39Z</time>
353      </trkpt>
354      <trkpt lat="47.196992291137576" lon="8.793786959722638">
355        <ele>493.11000000000001</ele>
356        <time>2016-01-03T12:04:40Z</time>
357      </trkpt>
358      <trkpt lat="47.196995476260781" lon="8.793743625283241">
359        <ele>493.30000000000001</ele>
360        <time>2016-01-03T12:04:41Z</time>
361      </trkpt>
362      <trkpt lat="47.197002684697509" lon="8.793694507330656">
363        <ele>493.50999999999999</ele>
364        <time>2016-01-03T12:04:42Z</time>
365      </trkpt>
366      <trkpt lat="47.197005115449429" lon="8.793357806280255">
367        <ele>493</ele>
368        <time>2016-01-03T12:04:50Z</time>
369      </trkpt>
370      <trkpt lat="47.197021627798676" lon="8.793316148221493">
371        <ele>492.37</ele>
372        <time>2016-01-03T12:04:51Z</time>
373      </trkpt>
374      <trkpt lat="47.197044594213367" lon="8.793262336403132">
375        <ele>492.30000000000001</ele>
376        <time>2016-01-03T12:04:52Z</time>
377      </trkpt>
378      <trkpt lat="47.197069069370627" lon="8.793201064690948">
379        <ele>492.04000000000002</ele>
380        <time>2016-01-03T12:04:53Z</time>
381      </trkpt>
382      <trkpt lat="47.197089856490493" lon="8.793123783543706">
383        <ele>491.37</ele>
384        <time>2016-01-03T12:04:54Z</time>
385      </trkpt>
386      <trkpt lat="47.197109134867787" lon="8.793046250939369">
387        <ele>491.06999999999999</ele>
388        <time>2016-01-03T12:04:55Z</time>
389      </trkpt>
390      <trkpt lat="47.197131179273129" lon="8.792974585667253">
391        <ele>490.39999999999998</ele>
392        <time>2016-01-03T12:04:56Z</time>
393      </trkpt>
394      <trkpt lat="47.197186248376966" lon="8.792809881269932">
395        <ele>489.75</ele>
396        <time>2016-01-03T12:04:58Z</time>
397      </trkpt>
398      <trkpt lat="47.197207538411021" lon="8.79271550104022">
399        <ele>489.87</ele>
400        <time>2016-01-03T12:04:59Z</time>
401      </trkpt>
402      <trkpt lat="47.197222961112857" lon="8.792620282620192">
403        <ele>488.95999999999998</ele>
404        <time>2016-01-03T12:05:00Z</time>
405      </trkpt>
406      <trkpt lat="47.197339301928878" lon="8.792043440043926">
407        <ele>485.85000000000002</ele>
408        <time>2016-01-03T12:05:06Z</time>
409      </trkpt>
410      <trkpt lat="47.197452206164598" lon="8.791516218334436">
411        <ele>482.81</ele>
412        <time>2016-01-03T12:05:11Z</time>
413      </trkpt>
414      <trkpt lat="47.197455475106835" lon="8.79138101823628">
415        <ele>481.99000000000001</ele>
416        <time>2016-01-03T12:05:12Z</time>
417      </trkpt>
418      <trkpt lat="47.197490092366934" lon="8.79095789976418">
419        <ele>478.92000000000002</ele>
420        <time>2016-01-03T12:05:15Z</time>
421      </trkpt>
422      <trkpt lat="47.197532253339887" lon="8.790533943101764">
423        <ele>475.89999999999998</ele>
424        <time>2016-01-03T12:05:18Z</time>
425      </trkpt>
426      <trkpt lat="47.197628645226359" lon="8.789889458566904">
427        <ele>474.38</ele>
428        <time>2016-01-03T12:05:23Z</time>
429      </trkpt>
430      <trkpt lat="47.197637446224689" lon="8.789792899042368">
431        <ele>474.35000000000002</ele>
432        <time>2016-01-03T12:05:24Z</time>
433      </trkpt>
434      <trkpt lat="47.1976438164711" lon="8.789720982313156">
435        <ele>474.12</ele>
436        <time>2016-01-03T12:05:25Z</time>
437      </trkpt>
438      <trkpt lat="47.197648594155908" lon="8.789367768913508">
439        <ele>472.52999999999997</ele>
440        <time>2016-01-03T12:05:33Z</time>
441      </trkpt>
442      <trkpt lat="47.197656137868762" lon="8.789310688152909">
443        <ele>472.75</ele>
444        <time>2016-01-03T12:05:34Z</time>
445      </trkpt>
446      <trkpt lat="47.197690336033702" lon="8.789105415344238">
447        <ele>472.19</ele>
448        <time>2016-01-03T12:05:37Z</time>
449      </trkpt>
450      <trkpt lat="47.197700729593635" lon="8.789032660424709">
451        <ele>471.92000000000002</ele>
452        <time>2016-01-03T12:05:38Z</time>
453      </trkpt>
454      <trkpt lat="47.197715900838375" lon="8.78876687027514">
455        <ele>471.98000000000002</ele>
456        <time>2016-01-03T12:05:41Z</time>
457      </trkpt>
458      <trkpt lat="47.197754625231028" lon="8.788432851433754">
459        <ele>473.49000000000001</ele>
460        <time>2016-01-03T12:05:47Z</time>
461      </trkpt>
462      <trkpt lat="47.197777507826686" lon="8.788416003808379">
463        <ele>473.44999999999999</ele>
464        <time>2016-01-03T12:05:48Z</time>
465      </trkpt>
466      <trkpt lat="47.197800641879439" lon="8.788405358791351">
467        <ele>473.45999999999998</ele>
468        <time>2016-01-03T12:05:49Z</time>
469      </trkpt>
470      <trkpt lat="47.197963669896126" lon="8.788386499509215">
471        <ele>470.27999999999997</ele>
472        <time>2016-01-03T12:05:53Z</time>
473      </trkpt>
474      <trkpt lat="47.198130888864398" lon="8.788295891135931">
475        <ele>467.20999999999998</ele>
476        <time>2016-01-03T12:05:57Z</time>
477      </trkpt>
478      <trkpt lat="47.19813633710146" lon="8.788262866437435">
479        <ele>466.89999999999998</ele>
480        <time>2016-01-03T12:05:58Z</time>
481      </trkpt>
482      <trkpt lat="47.198126614093781" lon="8.788229255005717">
483        <ele>466.76999999999998</ele>
484        <time>2016-01-03T12:05:59Z</time>
485      </trkpt>
486      <trkpt lat="47.198103060945868" lon="8.788186172023416">
487        <ele>466.25</ele>
488        <time>2016-01-03T12:06:00Z</time>
489      </trkpt>
490      <trkpt lat="47.198083698749542" lon="8.788127414882183">
491        <ele>465.23000000000002</ele>
492        <time>2016-01-03T12:06:01Z</time>
493      </trkpt>
494      <trkpt lat="47.198078166693449" lon="8.788059940561652">
495        <ele>464.12</ele>
496        <time>2016-01-03T12:06:02Z</time>
497      </trkpt>
498      <trkpt lat="47.198088811710477" lon="8.787991376593709">
499        <ele>463.68000000000001</ele>
500        <time>2016-01-03T12:06:03Z</time>
501      </trkpt>
502      <trkpt lat="47.19811093993485" lon="8.787914346903563">
503        <ele>462.5</ele>
504        <time>2016-01-03T12:06:04Z</time>
505      </trkpt>
506      <trkpt lat="47.19815100543201" lon="8.78783798776567">
507        <ele>462.45999999999998</ele>
508        <time>2016-01-03T12:06:05Z</time>
509      </trkpt>
510      <trkpt lat="47.198194926604629" lon="8.787756934762001">
511        <ele>461.56999999999999</ele>
512        <time>2016-01-03T12:06:06Z</time>
513      </trkpt>
514      <trkpt lat="47.198286037892103" lon="8.787589464336634">
515        <ele>461.14999999999998</ele>
516        <time>2016-01-03T12:06:08Z</time>
517      </trkpt>
518      <trkpt lat="47.19831814058125" lon="8.7874944973737">
519        <ele>460.19</ele>
520        <time>2016-01-03T12:06:09Z</time>
521      </trkpt>
522      <trkpt lat="47.198330964893103" lon="8.787389053031802">
523        <ele>459.83999999999997</ele>
524        <time>2016-01-03T12:06:10Z</time>
525      </trkpt>
526      <trkpt lat="47.198331551626325" lon="8.787284530699253">
527        <ele>460.49000000000001</ele>
528        <time>2016-01-03T12:06:11Z</time>
529      </trkpt>
530      <trkpt lat="47.198325265198946" lon="8.787185624241829">
531        <ele>460.23000000000002</ele>
532        <time>2016-01-03T12:06:12Z</time>
533      </trkpt>
534      <trkpt lat="47.198242451995611" lon="8.78635254688561">
535        <ele>460.56999999999999</ele>
536        <time>2016-01-03T12:06:22Z</time>
537      </trkpt>
538      <trkpt lat="47.198192747309804" lon="8.785861451178789">
539        <ele>457.79000000000002</ele>
540        <time>2016-01-03T12:06:27Z</time>
541      </trkpt>
542      <trkpt lat="47.198192495852709" lon="8.78536943346262">
543        <ele>454.66000000000003</ele>
544        <time>2016-01-03T12:06:31Z</time>
545      </trkpt>
546      <trkpt lat="47.198174810037017" lon="8.784985039383173">
547        <ele>453.24000000000001</ele>
548        <time>2016-01-03T12:06:34Z</time>
549      </trkpt>
550      <trkpt lat="47.198160560801625" lon="8.784750597551465">
551        <ele>450.20999999999998</ele>
552        <time>2016-01-03T12:06:36Z</time>
553      </trkpt>
554      <trkpt lat="47.198155196383595" lon="8.784640291705728">
555        <ele>450.24000000000001</ele>
556        <time>2016-01-03T12:06:37Z</time>
557      </trkpt>
558      <trkpt lat="47.198156453669071" lon="8.784529399126768">
559        <ele>448.61000000000001</ele>
560        <time>2016-01-03T12:06:38Z</time>
561      </trkpt>
562      <trkpt lat="47.198163997381926" lon="8.784421188756824">
563        <ele>447.69</ele>
564        <time>2016-01-03T12:06:39Z</time>
565      </trkpt>
566      <trkpt lat="47.198176067322493" lon="8.784317336976528">
567        <ele>447.02999999999997</ele>
568        <time>2016-01-03T12:06:40Z</time>
569      </trkpt>
570      <trkpt lat="47.198192328214645" lon="8.784221196547151">
571        <ele>445.79000000000002</ele>
572        <time>2016-01-03T12:06:41Z</time>
573      </trkpt>
574      <trkpt lat="47.198209259659052" lon="8.784135701134801">
575        <ele>444.92000000000002</ele>
576        <time>2016-01-03T12:06:42Z</time>
577      </trkpt>
578      <trkpt lat="47.198231890797615" lon="8.784063197672367">
579        <ele>444.45999999999998</ele>
580        <time>2016-01-03T12:06:43Z</time>
581      </trkpt>
582      <trkpt lat="47.198262820020318" lon="8.78400712274015">
583        <ele>443.93000000000001</ele>
584        <time>2016-01-03T12:06:44Z</time>
585      </trkpt>
586      <trkpt lat="47.19830397516489" lon="8.783963955938816">
587        <ele>443.87</ele>
588        <time>2016-01-03T12:06:45Z</time>
589      </trkpt>
590      <trkpt lat="47.198458202183247" lon="8.783821295946837">
591        <ele>441.69999999999999</ele>
592        <time>2016-01-03T12:06:48Z</time>
593      </trkpt>
594      <trkpt lat="47.1985072363168" lon="8.783753989264369">
595        <ele>442.23000000000002</ele>
596        <time>2016-01-03T12:06:49Z</time>
597      </trkpt>
598      <trkpt lat="47.19855316914618" lon="8.783676540479064">
599        <ele>441.95999999999998</ele>
600        <time>2016-01-03T12:06:50Z</time>
601      </trkpt>
602      <trkpt lat="47.198689877986908" lon="8.783424664288759">
603        <ele>440.14999999999998</ele>
604        <time>2016-01-03T12:06:53Z</time>
605      </trkpt>
606      <trkpt lat="47.198787024244666" lon="8.783246632665396">
607        <ele>438.99000000000001</ele>
608        <time>2016-01-03T12:06:55Z</time>
609      </trkpt>
610      <trkpt lat="47.19909748993814" lon="8.782679932191968">
611        <ele>435.69</ele>
612        <time>2016-01-03T12:07:01Z</time>
613      </trkpt>
614      <trkpt lat="47.199148284271359" lon="8.782580774277449">
615        <ele>435.45999999999998</ele>
616        <time>2016-01-03T12:07:02Z</time>
617      </trkpt>
618      <trkpt lat="47.199404938146472" lon="8.782066041603684">
619        <ele>431.98000000000002</ele>
620        <time>2016-01-03T12:07:07Z</time>
621      </trkpt>
622      <trkpt lat="47.199485991150141" lon="8.781830258667469">
623        <ele>431.12</ele>
624        <time>2016-01-03T12:07:09Z</time>
625      </trkpt>
626      <trkpt lat="47.1996418107301" lon="8.781351484358311">
627        <ele>427.87</ele>
628        <time>2016-01-03T12:07:13Z</time>
629      </trkpt>
630      <trkpt lat="47.199689168483019" lon="8.781257439404726">
631        <ele>427.97000000000003</ele>
632        <time>2016-01-03T12:07:14Z</time>
633      </trkpt>
634      <trkpt lat="47.199740214273334" lon="8.78118091262877">
635        <ele>427.36000000000001</ele>
636        <time>2016-01-03T12:07:15Z</time>
637      </trkpt>
638      <trkpt lat="47.199787823483348" lon="8.781111678108573">
639        <ele>426.97000000000003</ele>
640        <time>2016-01-03T12:07:16Z</time>
641      </trkpt>
642      <trkpt lat="47.199824703857303" lon="8.781037917360663">
643        <ele>426.38</ele>
644        <time>2016-01-03T12:07:17Z</time>
645      </trkpt>
646      <trkpt lat="47.199841467663646" lon="8.780954517424107">
647        <ele>426.74000000000001</ele>
648        <time>2016-01-03T12:07:18Z</time>
649      </trkpt>
650      <trkpt lat="47.199842557311058" lon="8.780868854373694">
651        <ele>426.91000000000003</ele>
652        <time>2016-01-03T12:07:19Z</time>
653      </trkpt>
654      <trkpt lat="47.199838701635599" lon="8.780791657045484">
655        <ele>427.19</ele>
656        <time>2016-01-03T12:07:20Z</time>
657      </trkpt>
658      <trkpt lat="47.199839036911726" lon="8.780646901577711">
659        <ele>427.38999999999999</ele>
660        <time>2016-01-03T12:07:22Z</time>
661      </trkpt>
662      <trkpt lat="47.199851861223578" lon="8.780574817210436">
663        <ele>426.94</ele>
664        <time>2016-01-03T12:07:23Z</time>
665      </trkpt>
666      <trkpt lat="47.199871055781841" lon="8.780505582690239">
667        <ele>426.48000000000002</ele>
668        <time>2016-01-03T12:07:24Z</time>
669      </trkpt>
670      <trkpt lat="47.200363827869296" lon="8.779247710481286">
671        <ele>423.64999999999998</ele>
672        <time>2016-01-03T12:07:41Z</time>
673      </trkpt>
674      <trkpt lat="47.200817875564098" lon="8.778209611773491">
675        <ele>422.06999999999999</ele>
676        <time>2016-01-03T12:07:55Z</time>
677      </trkpt>
678      <trkpt lat="47.201091544702649" lon="8.777585159987211">
679        <ele>421.18000000000001</ele>
680        <time>2016-01-03T12:08:06Z</time>
681      </trkpt>
682      <trkpt lat="47.201127419248223" lon="8.777348203584552">
683        <ele>419.81999999999999</ele>
684        <time>2016-01-03T12:08:10Z</time>
685      </trkpt>
686      <trkpt lat="47.201350377872586" lon="8.776617804542184">
687        <ele>418.05000000000001</ele>
688        <time>2016-01-03T12:08:20Z</time>
689      </trkpt>
690      <trkpt lat="47.201379965990782" lon="8.776486292481422">
691        <ele>417.81</ele>
692        <time>2016-01-03T12:08:22Z</time>
693      </trkpt>
694      <trkpt lat="47.201369823887944" lon="8.776425942778587">
695        <ele>418.02999999999997</ele>
696        <time>2016-01-03T12:08:23Z</time>
697      </trkpt>
698      <trkpt lat="47.201347779482603" lon="8.77637087367475">
699        <ele>418.06</ele>
700        <time>2016-01-03T12:08:24Z</time>
701      </trkpt>
702      <trkpt lat="47.201291872188449" lon="8.776263920590282">
703        <ele>418.32999999999998</ele>
704        <time>2016-01-03T12:08:26Z</time>
705      </trkpt>
706      <trkpt lat="47.201229929924011" lon="8.776174485683441">
707        <ele>418.72000000000003</ele>
708        <time>2016-01-03T12:08:28Z</time>
709      </trkpt>
710      <trkpt lat="47.201203946024179" lon="8.776124026626349">
711        <ele>418.20999999999998</ele>
712        <time>2016-01-03T12:08:29Z</time>
713      </trkpt>
714      <trkpt lat="47.201192546635866" lon="8.776061497628689">
715        <ele>418.70999999999998</ele>
716        <time>2016-01-03T12:08:30Z</time>
717      </trkpt>
718      <trkpt lat="47.201194642111659" lon="8.77599410712719">
719        <ele>418.79000000000002</ele>
720        <time>2016-01-03T12:08:31Z</time>
721      </trkpt>
722      <trkpt lat="47.201202772557735" lon="8.775926465168595">
723        <ele>419.05000000000001</ele>
724        <time>2016-01-03T12:08:32Z</time>
725      </trkpt>
726      <trkpt lat="47.201270749792457" lon="8.775376528501511">
727        <ele>420.47000000000003</ele>
728        <time>2016-01-03T12:08:40Z</time>
729      </trkpt>
730      <trkpt lat="47.201291369274259" lon="8.77517418935895">
731        <ele>420.68000000000001</ele>
732        <time>2016-01-03T12:08:43Z</time>
733      </trkpt>
734      <trkpt lat="47.201323304325342" lon="8.774973526597023">
735        <ele>421.39999999999998</ele>
736        <time>2016-01-03T12:08:46Z</time>
737      </trkpt>
738      <trkpt lat="47.201389018446207" lon="8.774476982653141">
739        <ele>421.52999999999997</ele>
740        <time>2016-01-03T12:08:53Z</time>
741      </trkpt>
742      <trkpt lat="47.201492534950376" lon="8.773281471803784">
743        <ele>423.57999999999998</ele>
744        <time>2016-01-03T12:09:10Z</time>
745      </trkpt>
746      <trkpt lat="47.201487841084599" lon="8.772208672016859">
747        <ele>423</ele>
748        <time>2016-01-03T12:09:26Z</time>
749      </trkpt>
750      <trkpt lat="47.201499743387103" lon="8.772082105278969">
751        <ele>423.07999999999998</ele>
752        <time>2016-01-03T12:09:28Z</time>
753      </trkpt>
754      <trkpt lat="47.201489685103297" lon="8.772034915164113">
755        <ele>423.02999999999997</ele>
756        <time>2016-01-03T12:09:29Z</time>
757      </trkpt>
758      <trkpt lat="47.201443249359727" lon="8.77200884744525">
759        <ele>422.26999999999998</ele>
760        <time>2016-01-03T12:09:31Z</time>
761      </trkpt>
762      <trkpt lat="47.201405949890614" lon="8.772033825516701">
763        <ele>421.35000000000002</ele>
764        <time>2016-01-03T12:09:42Z</time>
765      </trkpt>
766      <trkpt lat="47.201326573267579" lon="8.771982276812196">
767        <ele>421.75</ele>
768        <time>2016-01-03T12:10:04Z</time>
769      </trkpt>
770      <trkpt lat="47.201268151402473" lon="8.77192972227931">
771        <ele>421.48000000000002</ele>
772        <time>2016-01-03T12:10:23Z</time>
773      </trkpt>
774    </trkseg>
775  </trk>
776
777  <trk>
778    <name>Schotterstrasse durch Wald</name>
779    <extensions>
780      <gpxx:TrackExtension xmlns:gpxx="http://www.garmin.com/xmlschemas/GpxExtensions/v3">
781        <gpxx:DisplayColor>Blue</gpxx:DisplayColor>
782      </gpxx:TrackExtension>
783    </extensions>
784    <trkseg>
785      <trkpt lat="47.186606526374817" lon="8.796921372413635">
786        <ele>624.7421875</ele>
787      </trkpt>
788      <trkpt lat="47.186644077301025" lon="8.796824812889099">
789        <ele>626.015625</ele>
790      </trkpt>
791      <trkpt lat="47.186697721481323" lon="8.796712160110474">
792        <ele>627.0625</ele>
793      </trkpt>
794      <trkpt lat="47.186762094497681" lon="8.796610236167908">
795        <ele>627.3671875</ele>
796      </trkpt>
797      <trkpt lat="47.186837196350098" lon="8.796519041061401">
798        <ele>626.90234375</ele>
799      </trkpt>
800      <trkpt lat="47.186912298202515" lon="8.796401023864746">
801        <ele>626.11328125</ele>
802      </trkpt>
803      <trkpt lat="47.186987400054932" lon="8.796277642250061">
804        <ele>625.33203125</ele>
805      </trkpt>
806      <trkpt lat="47.187078595161438" lon="8.796148896217346">
807        <ele>623.90625</ele>
808      </trkpt>
809      <trkpt lat="47.187105417251587" lon="8.796095252037048">
810        <ele>623.66796875</ele>
811      </trkpt>
812      <trkpt lat="47.187126874923706" lon="8.796030879020691">
813        <ele>623.71484375</ele>
814      </trkpt>
815      <trkpt lat="47.187132239341736" lon="8.795977234840393">
816        <ele>623.75</ele>
817      </trkpt>
818      <trkpt lat="47.187132239341736" lon="8.795923590660095">
819        <ele>623.9375</ele>
820      </trkpt>
821      <trkpt lat="47.187132239341736" lon="8.795859217643738">
822        <ele>624.1640625</ele>
823      </trkpt>
824      <trkpt lat="47.187110781669617" lon="8.795735836029053">
825        <ele>625.234375</ele>
826      </trkpt>
827      <trkpt lat="47.187100052833557" lon="8.795607089996338">
828        <ele>626</ele>
829      </trkpt>
830      <trkpt lat="47.187094688415527" lon="8.795521259307861">
831        <ele>626.3515625</ele>
832      </trkpt>
833      <trkpt lat="47.187105417251587" lon="8.795440793037415">
834        <ele>626.14453125</ele>
835      </trkpt>
836      <trkpt lat="47.187126874923706" lon="8.795360326766968">
837        <ele>625.6640625</ele>
838      </trkpt>
839      <trkpt lat="47.187164425849915" lon="8.795285224914551">
840        <ele>624.7890625</ele>
841      </trkpt>
842      <trkpt lat="47.187234163284302" lon="8.795183300971985">
843        <ele>623.23046875</ele>
844      </trkpt>
845      <trkpt lat="47.187293171882629" lon="8.795086741447449">
846        <ele>622.09375</ele>
847      </trkpt>
848      <trkpt lat="47.187362909317017" lon="8.794984817504883">
849        <ele>620.9765625</ele>
850      </trkpt>
851      <trkpt lat="47.187416553497314" lon="8.794904351234436">
852        <ele>620.23828125</ele>
853      </trkpt>
854      <trkpt lat="47.187464833259583" lon="8.794845342636108">
855        <ele>619.42578125</ele>
856      </trkpt>
857      <trkpt lat="47.18752384185791" lon="8.79479706287384">
858        <ele>617.7734375</ele>
859      </trkpt>
860      <trkpt lat="47.187561392784119" lon="8.794743418693543">
861        <ele>616.8671875</ele>
862      </trkpt>
863      <trkpt lat="47.187593579292297" lon="8.794695138931274">
864        <ele>616.09765625</ele>
865      </trkpt>
866      <trkpt lat="47.187609672546387" lon="8.794630765914917">
867        <ele>615.87890625</ele>
868      </trkpt>
869      <trkpt lat="47.187620401382446" lon="8.7945556640625">
870        <ele>615.3984375</ele>
871      </trkpt>
872      <trkpt lat="47.187636494636536" lon="8.794485926628113">
873        <ele>614.76953125</ele>
874      </trkpt>
875      <trkpt lat="47.187674045562744" lon="8.794400095939636">
876        <ele>613.47265625</ele>
877      </trkpt>
878      <trkpt lat="47.187695503234863" lon="8.79430890083313">
879        <ele>612.72265625</ele>
880      </trkpt>
881      <trkpt lat="47.187700867652893" lon="8.794185519218445">
882        <ele>612.4609375</ele>
883      </trkpt>
884      <trkpt lat="47.187700867652893" lon="8.794078230857849">
885        <ele>611.85546875</ele>
886      </trkpt>
887      <trkpt lat="47.187684774398804" lon="8.793997764587402">
888        <ele>611.90625</ele>
889      </trkpt>
890      <trkpt lat="47.187663316726685" lon="8.793933391571045">
891        <ele>612.27734375</ele>
892      </trkpt>
893      <trkpt lat="47.187615036964417" lon="8.793869018554688">
894        <ele>613.66796875</ele>
895      </trkpt>
896      <trkpt lat="47.187582850456238" lon="8.79381537437439">
897        <ele>614.62890625</ele>
898      </trkpt>
899      <trkpt lat="47.187566757202148" lon="8.793767094612122">
900        <ele>615.0703125</ele>
901      </trkpt>
902      <trkpt lat="47.187572121620178" lon="8.793713450431824">
903        <ele>614.72265625</ele>
904      </trkpt>
905      <trkpt lat="47.187588214874268" lon="8.793681263923645">
906        <ele>614.26171875</ele>
907      </trkpt>
908      <trkpt lat="47.187641859054565" lon="8.793681263923645">
909        <ele>612.06640625</ele>
910      </trkpt>
911      <trkpt lat="47.187700867652893" lon="8.793708086013794">
912        <ele>609.6875</ele>
913      </trkpt>
914      <trkpt lat="47.18778133392334" lon="8.793751001358032">
915        <ele>606.83984375</ele>
916      </trkpt>
917      <trkpt lat="47.187851071357727" lon="8.79380464553833">
918        <ele>604.671875</ele>
919      </trkpt>
920      <trkpt lat="47.187920808792114" lon="8.793842196464539">
921        <ele>602.52734375</ele>
922      </trkpt>
923      <trkpt lat="47.188001275062561" lon="8.793911933898926">
924        <ele>600.78515625</ele>
925      </trkpt>
926      <trkpt lat="47.188113927841187" lon="8.794013857841492">
927        <ele>598.078125</ele>
928      </trkpt>
929      <trkpt lat="47.188151478767395" lon="8.79406213760376">
930        <ele>597.1953125</ele>
931      </trkpt>
932      <trkpt lat="47.188189029693604" lon="8.794153332710266">
933        <ele>596.5234375</ele>
934      </trkpt>
935      <trkpt lat="47.188215851783752" lon="8.794239163398743">
936        <ele>595.74609375</ele>
937      </trkpt>
938      <trkpt lat="47.188242673873901" lon="8.794351816177368">
939        <ele>594.82421875</ele>
940      </trkpt>
941      <trkpt lat="47.188264131546021" lon="8.794426918029785">
942        <ele>594.10546875</ele>
943      </trkpt>
944      <trkpt lat="47.188290953636169" lon="8.794475197792053">
945        <ele>593.2109375</ele>
946      </trkpt>
947      <trkpt lat="47.188307046890259" lon="8.794523477554321">
948        <ele>592.6875</ele>
949      </trkpt>
950      <trkpt lat="47.188312411308289" lon="8.794614672660828">
951        <ele>592.5390625</ele>
952      </trkpt>
953      <trkpt lat="47.188307046890259" lon="8.79479706287384">
954        <ele>592.7578125</ele>
955      </trkpt>
956      <trkpt lat="47.188307046890259" lon="8.794888257980347">
957        <ele>592.77734375</ele>
958      </trkpt>
959      <trkpt lat="47.188312411308289" lon="8.794941902160645">
960        <ele>592.63671875</ele>
961      </trkpt>
962      <trkpt lat="47.188333868980408" lon="8.794995546340942">
963        <ele>592.06640625</ele>
964      </trkpt>
965      <trkpt lat="47.188366055488586" lon="8.7950599193573">
966        <ele>591.2578125</ele>
967      </trkpt>
968      <trkpt lat="47.188403606414795" lon="8.795113563537598">
969        <ele>590.46875</ele>
970      </trkpt>
971      <trkpt lat="47.188435792922974" lon="8.795167207717896">
972        <ele>589.7578125</ele>
973      </trkpt>
974      <trkpt lat="47.188451886177063" lon="8.795226216316223">
975        <ele>589.359375</ele>
976      </trkpt>
977      <trkpt lat="47.188462615013123" lon="8.795290589332581">
978        <ele>589.05859375</ele>
979      </trkpt>
980      <trkpt lat="47.188451886177063" lon="8.795354962348938">
981        <ele>589.21875</ele>
982      </trkpt>
983      <trkpt lat="47.188430428504944" lon="8.795451521873474">
984        <ele>589.59375</ele>
985      </trkpt>
986      <trkpt lat="47.188408970832825" lon="8.7955641746521">
987        <ele>589.98046875</ele>
988      </trkpt>
989      <trkpt lat="47.188403606414795" lon="8.795655369758606">
990        <ele>589.51953125</ele>
991      </trkpt>
992      <trkpt lat="47.188408970832825" lon="8.795746564865112">
993        <ele>588.796875</ele>
994      </trkpt>
995      <trkpt lat="47.188435792922974" lon="8.795859217643738">
996        <ele>587.4375</ele>
997      </trkpt>
998      <trkpt lat="47.188478708267212" lon="8.795971870422363">
999        <ele>585.70703125</ele>
1000      </trkpt>
1001      <trkpt lat="47.188505530357361" lon="8.79605233669281">
1002        <ele>584.48046875</ele>
1003      </trkpt>
1004      <trkpt lat="47.18852162361145" lon="8.796132802963257">
1005        <ele>583.328125</ele>
1006      </trkpt>
1007      <trkpt lat="47.18852162361145" lon="8.796197175979614">
1008        <ele>582.69921875</ele>
1009      </trkpt>
1010      <trkpt lat="47.18851625919342" lon="8.796283006668091">
1011        <ele>581.96875</ele>
1012      </trkpt>
1013      <trkpt lat="47.188500165939331" lon="8.796379566192627">
1014        <ele>581.3359375</ele>
1015      </trkpt>
1016      <trkpt lat="47.188489437103271" lon="8.796465396881104">
1017        <ele>580.6796875</ele>
1018      </trkpt>
1019      <trkpt lat="47.188489437103271" lon="8.796524405479431">
1020        <ele>580.33984375</ele>
1021      </trkpt>
1022      <trkpt lat="47.188500165939331" lon="8.796578049659729">
1023        <ele>580.0234375</ele>
1024      </trkpt>
1025      <trkpt lat="47.18852162361145" lon="8.796631693840027">
1026        <ele>579.5078125</ele>
1027      </trkpt>
1028      <trkpt lat="47.188548445701599" lon="8.796685338020325">
1029        <ele>578.890625</ele>
1030      </trkpt>
1031      <trkpt lat="47.188569903373718" lon="8.796749711036682">
1032        <ele>578.34375</ele>
1033      </trkpt>
1034      <trkpt lat="47.188580632209778" lon="8.796819448471069">
1035        <ele>577.984375</ele>
1036      </trkpt>
1037      <trkpt lat="47.188575267791748" lon="8.796899914741516">
1038        <ele>577.90234375</ele>
1039      </trkpt>
1040      <trkpt lat="47.188585996627808" lon="8.796991109848023">
1041        <ele>577.50390625</ele>
1042      </trkpt>
1043      <trkpt lat="47.188596725463867" lon="8.79704475402832">
1044        <ele>577.20703125</ele>
1045      </trkpt>
1046      <trkpt lat="47.188623547554016" lon="8.797119855880737">
1047        <ele>576.6171875</ele>
1048      </trkpt>
1049      <trkpt lat="47.188666462898254" lon="8.797189593315125">
1050        <ele>575.82421875</ele>
1051      </trkpt>
1052      <trkpt lat="47.188709378242493" lon="8.797211050987244">
1053        <ele>575.125</ele>
1054      </trkpt>
1055      <trkpt lat="47.188714742660522" lon="8.797157406806946">
1056        <ele>575.0546875</ele>
1057      </trkpt>
1058      <trkpt lat="47.188725471496582" lon="8.79705548286438">
1059        <ele>574.89453125</ele>
1060      </trkpt>
1061      <trkpt lat="47.188736200332642" lon="8.796937465667725">
1062        <ele>574.75</ele>
1063      </trkpt>
1064      <trkpt lat="47.188757658004761" lon="8.79681408405304">
1065        <ele>574.6484375</ele>
1066      </trkpt>
1067      <trkpt lat="47.188795208930969" lon="8.796685338020325">
1068        <ele>574.26953125</ele>
1069      </trkpt>
1070      <trkpt lat="47.188838124275208" lon="8.796588778495789">
1071        <ele>573.72265625</ele>
1072      </trkpt>
1073      <trkpt lat="47.188907861709595" lon="8.796438574790955">
1074        <ele>572.4296875</ele>
1075      </trkpt>
1076      <trkpt lat="47.18901515007019" lon="8.796240091323853">
1077        <ele>570.828125</ele>
1078      </trkpt>
1079      <trkpt lat="47.189063429832458" lon="8.796154260635376">
1080        <ele>570.1015625</ele>
1081      </trkpt>
1082      <trkpt lat="47.189154624938965" lon="8.795987963676453">
1083        <ele>568.7734375</ele>
1084      </trkpt>
1085      <trkpt lat="47.189218997955322" lon="8.795869946479797">
1086        <ele>567.8125</ele>
1087      </trkpt>
1088      <trkpt lat="47.189261913299561" lon="8.795778751373291">
1089        <ele>567.25390625</ele>
1090      </trkpt>
1091      <trkpt lat="47.18928337097168" lon="8.795714378356934">
1092        <ele>567.09765625</ele>
1093      </trkpt>
1094      <trkpt lat="47.189294099807739" lon="8.795660734176636">
1095        <ele>567.1640625</ele>
1096      </trkpt>
1097      <trkpt lat="47.189299464225769" lon="8.795580267906189">
1098        <ele>567.546875</ele>
1099      </trkpt>
1100      <trkpt lat="47.189299464225769" lon="8.795451521873474">
1101        <ele>567.86328125</ele>
1102      </trkpt>
1103      <trkpt lat="47.189294099807739" lon="8.7953120470047">
1104        <ele>568.2890625</ele>
1105      </trkpt>
1106      <trkpt lat="47.189294099807739" lon="8.795210123062134">
1107        <ele>568.49609375</ele>
1108      </trkpt>
1109      <trkpt lat="47.189304828643799" lon="8.795135021209717">
1110        <ele>568.33203125</ele>
1111      </trkpt>
1112      <trkpt lat="47.189342379570007" lon="8.794904351234436">
1113        <ele>566.84765625</ele>
1114      </trkpt>
1115      <trkpt lat="47.189347743988037" lon="8.794845342636108">
1116        <ele>566.609375</ele>
1117      </trkpt>
1118      <trkpt lat="47.189337015151978" lon="8.794738054275513">
1119        <ele>566.94140625</ele>
1120      </trkpt>
1121      <trkpt lat="47.189337015151978" lon="8.794657588005066">
1122        <ele>566.88671875</ele>
1123      </trkpt>
1124      <trkpt lat="47.189353108406067" lon="8.794577121734619">
1125        <ele>566.27734375</ele>
1126      </trkpt>
1127      <trkpt lat="47.189374566078186" lon="8.794502019882202">
1128        <ele>565.48046875</ele>
1129      </trkpt>
1130      <trkpt lat="47.189428210258484" lon="8.794384002685547">
1131        <ele>563.5</ele>
1132      </trkpt>
1133      <trkpt lat="47.189455032348633" lon="8.7943035364151">
1134        <ele>562.51953125</ele>
1135      </trkpt>
1136      <trkpt lat="47.189471125602722" lon="8.794206976890564">
1137        <ele>561.9453125</ele>
1138      </trkpt>
1139      <trkpt lat="47.189481854438782" lon="8.794072866439819">
1140        <ele>561.85546875</ele>
1141      </trkpt>
1142      <trkpt lat="47.189497947692871" lon="8.793911933898926">
1143        <ele>561.7578125</ele>
1144      </trkpt>
1145      <trkpt lat="47.189508676528931" lon="8.793788552284241">
1146        <ele>561.765625</ele>
1147      </trkpt>
1148      <trkpt lat="47.18952476978302" lon="8.793686628341675">
1149        <ele>561.453125</ele>
1150      </trkpt>
1151      <trkpt lat="47.189551591873169" lon="8.79356861114502">
1152        <ele>560.6015625</ele>
1153      </trkpt>
1154      <trkpt lat="47.189583778381348" lon="8.793466687202454">
1155        <ele>559.65234375</ele>
1156      </trkpt>
1157      <trkpt lat="47.189615964889526" lon="8.793386220932007">
1158        <ele>558.7578125</ele>
1159      </trkpt>
1160      <trkpt lat="47.189658880233765" lon="8.793278932571411">
1161        <ele>557.66015625</ele>
1162      </trkpt>
1163      <trkpt lat="47.189712524414063" lon="8.793187737464905">
1164        <ele>556.35546875</ele>
1165      </trkpt>
1166      <trkpt lat="47.189760804176331" lon="8.793118000030518">
1167        <ele>555.2265625</ele>
1168      </trkpt>
1169      <trkpt lat="47.189830541610718" lon="8.79304826259613">
1170        <ele>553.53125</ele>
1171      </trkpt>
1172      <trkpt lat="47.189921736717224" lon="8.792962431907654">
1173        <ele>551.265625</ele>
1174      </trkpt>
1175      <trkpt lat="47.189975380897522" lon="8.792903423309326">
1176        <ele>549.92578125</ele>
1177      </trkpt>
1178      <trkpt lat="47.190007567405701" lon="8.792855143547058">
1179        <ele>549.140625</ele>
1180      </trkpt>
1181      <trkpt lat="47.19003438949585" lon="8.792780041694641">
1182        <ele>548.48828125</ele>
1183      </trkpt>
1184      <trkpt lat="47.190045118331909" lon="8.792726397514343">
1185        <ele>548.0078125</ele>
1186      </trkpt>
1187      <trkpt lat="47.190055847167969" lon="8.792635202407837">
1188        <ele>547.39453125</ele>
1189      </trkpt>
1190      <trkpt lat="47.190055847167969" lon="8.79256546497345">
1191        <ele>547.15234375</ele>
1192      </trkpt>
1193      <trkpt lat="47.190050482749939" lon="8.792501091957092">
1194        <ele>547.08203125</ele>
1195      </trkpt>
1196      <trkpt lat="47.19001829624176" lon="8.792366981506348">
1197        <ele>547.55078125</ele>
1198      </trkpt>
1199      <trkpt lat="47.189943194389343" lon="8.792104125022888">
1200        <ele>548.69921875</ele>
1201      </trkpt>
1202      <trkpt lat="47.189932465553284" lon="8.792034387588501">
1203        <ele>548.76953125</ele>
1204      </trkpt>
1205      <trkpt lat="47.189932465553284" lon="8.791970014572144">
1206        <ele>548.51953125</ele>
1207      </trkpt>
1208      <trkpt lat="47.189943194389343" lon="8.791900277137756">
1209        <ele>547.88671875</ele>
1210      </trkpt>
1211      <trkpt lat="47.189970016479492" lon="8.791830539703369">
1212        <ele>546.7265625</ele>
1213      </trkpt>
1214      <trkpt lat="47.190002202987671" lon="8.791755437850952">
1215        <ele>545.3984375</ele>
1216      </trkpt>
1217      <trkpt lat="47.190039753913879" lon="8.791680335998535">
1218        <ele>543.87890625</ele>
1219      </trkpt>
1220      <trkpt lat="47.190120220184326" lon="8.791535496711731">
1221        <ele>540.6484375</ele>
1222      </trkpt>
1223      <trkpt lat="47.190232872962952" lon="8.791294097900391">
1224        <ele>536.4296875</ele>
1225      </trkpt>
1226      <trkpt lat="47.190254330635071" lon="8.791224360466003">
1227        <ele>536.046875</ele>
1228      </trkpt>
1229      <trkpt lat="47.19027042388916" lon="8.791149258613586">
1230        <ele>535.765625</ele>
1231      </trkpt>
1232      <trkpt lat="47.19027578830719" lon="8.791015148162842">
1233        <ele>535.71875</ele>
1234      </trkpt>
1235      <trkpt lat="47.19027578830719" lon="8.790768384933472">
1236        <ele>535.55859375</ele>
1237      </trkpt>
1238      <trkpt lat="47.19026505947113" lon="8.790435791015625">
1239        <ele>535.359375</ele>
1240      </trkpt>
1241      <trkpt lat="47.190259695053101" lon="8.790162205696106">
1242        <ele>534.5234375</ele>
1243      </trkpt>
1244      <trkpt lat="47.190259695053101" lon="8.789920806884766">
1245        <ele>534.2578125</ele>
1246      </trkpt>
1247      <trkpt lat="47.190254330635071" lon="8.789674043655396">
1248        <ele>535.1328125</ele>
1249      </trkpt>
1250      <trkpt lat="47.190254330635071" lon="8.78955602645874">
1251        <ele>535.46875</ele>
1252      </trkpt>
1253      <trkpt lat="47.190254330635071" lon="8.789491653442383">
1254        <ele>535.04296875</ele>
1255      </trkpt>
1256      <trkpt lat="47.19027042388916" lon="8.789438009262085">
1257        <ele>534.04296875</ele>
1258      </trkpt>
1259      <trkpt lat="47.190307974815369" lon="8.789384365081787">
1260        <ele>532.234375</ele>
1261      </trkpt>
1262      <trkpt lat="47.190356254577637" lon="8.789357542991638">
1263        <ele>530.2109375</ele>
1264      </trkpt>
1265      <trkpt lat="47.190393805503845" lon="8.789357542991638">
1266        <ele>528.7890625</ele>
1267      </trkpt>
1268      <trkpt lat="47.190425992012024" lon="8.789373636245728">
1269        <ele>527.69140625</ele>
1270      </trkpt>
1271      <trkpt lat="47.190458178520203" lon="8.789411187171936">
1272        <ele>526.76171875</ele>
1273      </trkpt>
1274      <trkpt lat="47.190485000610352" lon="8.789459466934204">
1275        <ele>526.1171875</ele>
1276      </trkpt>
1277      <trkpt lat="47.190506458282471" lon="8.789529204368591">
1278        <ele>525.83984375</ele>
1279      </trkpt>
1280      <trkpt lat="47.19052255153656" lon="8.789609670639038">
1281        <ele>525.51171875</ele>
1282      </trkpt>
1283      <trkpt lat="47.19053328037262" lon="8.789727687835693">
1284        <ele>525.34375</ele>
1285      </trkpt>
1286      <trkpt lat="47.190544009208679" lon="8.789829611778259">
1287        <ele>525.18359375</ele>
1288      </trkpt>
1289      <trkpt lat="47.190586924552917" lon="8.790022730827332">
1290        <ele>524.3515625</ele>
1291      </trkpt>
1292      <trkpt lat="47.190635204315186" lon="8.790242671966553">
1293        <ele>524.41015625</ele>
1294      </trkpt>
1295      <trkpt lat="47.190672755241394" lon="8.790398240089417">
1296        <ele>524.47265625</ele>
1297      </trkpt>
1298      <trkpt lat="47.190726399421692" lon="8.790548443794251">
1299        <ele>524.02734375</ele>
1300      </trkpt>
1301      <trkpt lat="47.19078004360199" lon="8.790677189826965">
1302        <ele>523.09375</ele>
1303      </trkpt>
1304      <trkpt lat="47.190833687782288" lon="8.79082202911377">
1305        <ele>521.92578125</ele>
1306      </trkpt>
1307      <trkpt lat="47.190876603126526" lon="8.790961503982544">
1308        <ele>520.87109375</ele>
1309      </trkpt>
1310      <trkpt lat="47.190908789634705" lon="8.791095614433289">
1311        <ele>520.51953125</ele>
1312      </trkpt>
1313      <trkpt lat="47.190935611724854" lon="8.791192173957825">
1314        <ele>520.2578125</ele>
1315      </trkpt>
1316      <trkpt lat="47.190973162651062" lon="8.791267275810242">
1317        <ele>519.6640625</ele>
1318      </trkpt>
1319      <trkpt lat="47.19103217124939" lon="8.791337013244629">
1320        <ele>518.5703125</ele>
1321      </trkpt>
1322      <trkpt lat="47.191112637519836" lon="8.791401386260986">
1323        <ele>517.04296875</ele>
1324      </trkpt>
1325      <trkpt lat="47.19128429889679" lon="8.791524767875671">
1326        <ele>513.03125</ele>
1327      </trkpt>
1328      <trkpt lat="47.191407680511475" lon="8.791610598564148">
1329        <ele>510.19921875</ele>
1330      </trkpt>
1331      <trkpt lat="47.191488146781921" lon="8.791669607162476">
1332        <ele>508.5</ele>
1333      </trkpt>
1334      <trkpt lat="47.1915203332901" lon="8.791696429252625">
1335        <ele>507.8828125</ele>
1336      </trkpt>
1337      <trkpt lat="47.191579341888428" lon="8.791739344596863">
1338        <ele>506.71875</ele>
1339      </trkpt>
1340      <trkpt lat="47.191627621650696" lon="8.79179835319519">
1341        <ele>506.03125</ele>
1342      </trkpt>
1343      <trkpt lat="47.191659808158875" lon="8.791851997375488">
1344        <ele>505.5390625</ele>
1345      </trkpt>
1346      <trkpt lat="47.191686630249023" lon="8.791916370391846">
1347        <ele>504.96875</ele>
1348      </trkpt>
1349      <trkpt lat="47.191718816757202" lon="8.792018294334412">
1350        <ele>504.28125</ele>
1351      </trkpt>
1352      <trkpt lat="47.191751003265381" lon="8.792141675949097">
1353        <ele>503.6640625</ele>
1354      </trkpt>
1355      <trkpt lat="47.191799283027649" lon="8.79229724407196">
1356        <ele>502.578125</ele>
1357      </trkpt>
1358      <trkpt lat="47.191842198371887" lon="8.792458176612854">
1359        <ele>500.921875</ele>
1360      </trkpt>
1361      <trkpt lat="47.191869020462036" lon="8.79257082939148">
1362        <ele>499.85546875</ele>
1363      </trkpt>
1364      <trkpt lat="47.191879749298096" lon="8.792662024497986">
1365        <ele>499.40234375</ele>
1366      </trkpt>
1367      <trkpt lat="47.191890478134155" lon="8.792763948440552">
1368        <ele>498.96875</ele>
1369      </trkpt>
1370      <trkpt lat="47.191895842552185" lon="8.792887330055237">
1371        <ele>497.8828125</ele>
1372      </trkpt>
1373      <trkpt lat="47.191895842552185" lon="8.79306435585022">
1374        <ele>496.2265625</ele>
1375      </trkpt>
1376      <trkpt lat="47.191901206970215" lon="8.793182373046875">
1377        <ele>494.9609375</ele>
1378      </trkpt>
1379      <trkpt lat="47.191906571388245" lon="8.793257474899292">
1380        <ele>494.13671875</ele>
1381      </trkpt>
1382      <trkpt lat="47.191928029060364" lon="8.793343305587769">
1383        <ele>493.6015625</ele>
1384      </trkpt>
1385      <trkpt lat="47.191960215568542" lon="8.793472051620483">
1386        <ele>492.828125</ele>
1387      </trkpt>
1388      <trkpt lat="47.19199282117188" lon="8.793616723269224">
1389        <ele>492.1015625</ele>
1390      </trkpt>
1391      <trkpt lat="47.192008495330811" lon="8.793686628341675">
1392        <ele>491.76953125</ele>
1393      </trkpt>
1394      <trkpt lat="47.192040681838989" lon="8.793852925300598">
1395        <ele>490.83984375</ele>
1396      </trkpt>
1397      <trkpt lat="47.192062139511108" lon="8.793992400169373">
1398        <ele>490.23828125</ele>
1399      </trkpt>
1400      <trkpt lat="47.192072868347168" lon="8.7940514087677">
1401        <ele>489.96484375</ele>
1402      </trkpt>
1403      <trkpt lat="47.192083597183228" lon="8.794147968292236">
1404        <ele>489.703125</ele>
1405      </trkpt>
1406      <trkpt lat="47.192121148109436" lon="8.795000910758972">
1407        <ele>484.7109375</ele>
1408      </trkpt>
1409      <trkpt lat="47.192137241363525" lon="8.79530131816864">
1410        <ele>482.328125</ele>
1411      </trkpt>
1412      <trkpt lat="47.192137241363525" lon="8.795451521873474">
1413        <ele>481.04296875</ele>
1414      </trkpt>
1415      <trkpt lat="47.192137241363525" lon="8.795537352561951">
1416        <ele>480.3046875</ele>
1417      </trkpt>
1418      <trkpt lat="47.192126512527466" lon="8.795607089996338">
1419        <ele>479.70703125</ele>
1420      </trkpt>
1421      <trkpt lat="47.192110419273376" lon="8.795682191848755">
1422        <ele>478.984375</ele>
1423      </trkpt>
1424      <trkpt lat="47.192088961601257" lon="8.795746564865112">
1425        <ele>478.4609375</ele>
1426      </trkpt>
1427      <trkpt lat="47.192035317420959" lon="8.795832395553589">
1428        <ele>479.1015625</ele>
1429      </trkpt>
1430      <trkpt lat="47.191981673240662" lon="8.795896768569946">
1431        <ele>480.359375</ele>
1432      </trkpt>
1433      <trkpt lat="47.191949486732483" lon="8.795934319496155">
1434        <ele>481.19140625</ele>
1435      </trkpt>
1436      <trkpt lat="47.191906571388245" lon="8.795993328094482">
1437        <ele>482.2890625</ele>
1438      </trkpt>
1439      <trkpt lat="47.191869020462036" lon="8.79606306552887">
1440        <ele>483.28125</ele>
1441      </trkpt>
1442      <trkpt lat="47.191847562789917" lon="8.796138167381287">
1443        <ele>483.69921875</ele>
1444      </trkpt>
1445      <trkpt lat="47.191842198371887" lon="8.796213269233704">
1446        <ele>483.4609375</ele>
1447      </trkpt>
1448      <trkpt lat="47.191842198371887" lon="8.796283006668091">
1449        <ele>483.0390625</ele>
1450      </trkpt>
1451      <trkpt lat="47.191858291625977" lon="8.796374201774597">
1452        <ele>481.9140625</ele>
1453      </trkpt>
1454      <trkpt lat="47.191885113716125" lon="8.796454668045044">
1455        <ele>480.515625</ele>
1456      </trkpt>
1457      <trkpt lat="47.191917300224304" lon="8.796513676643372">
1458        <ele>479.16796875</ele>
1459      </trkpt>
1460      <trkpt lat="47.191987037658691" lon="8.796631693840027">
1461        <ele>476.74609375</ele>
1462      </trkpt>
1463      <trkpt lat="47.192067503929138" lon="8.796760439872742">
1464        <ele>474.3515625</ele>
1465      </trkpt>
1466      <trkpt lat="47.192131876945496" lon="8.796835541725159">
1467        <ele>473.28515625</ele>
1468      </trkpt>
1469      <trkpt lat="47.192190885543823" lon="8.796894550323486">
1470        <ele>472.39453125</ele>
1471      </trkpt>
1472      <trkpt lat="47.192255258560181" lon="8.796948194503784">
1473        <ele>471.3671875</ele>
1474      </trkpt>
1475      <trkpt lat="47.192346453666687" lon="8.797001838684082">
1476        <ele>470.0390625</ele>
1477      </trkpt>
1478      <trkpt lat="47.192426919937134" lon="8.79704475402832">
1479        <ele>468.76171875</ele>
1480      </trkpt>
1481      <trkpt lat="47.192507386207581" lon="8.797082304954529">
1482        <ele>467.3671875</ele>
1483      </trkpt>
1484      <trkpt lat="47.192555665969849" lon="8.797114491462708">
1485        <ele>466.60546875</ele>
1486      </trkpt>
1487      <trkpt lat="47.192727327346802" lon="8.797253966331482">
1488        <ele>464.65625</ele>
1489      </trkpt>
1490      <trkpt lat="47.192807793617249" lon="8.79730761051178">
1491        <ele>463.62109375</ele>
1492      </trkpt>
1493      <trkpt lat="47.192866047844291" lon="8.797338372096419">
1494        <ele>462.84375</ele>
1495      </trkpt>
1496      <trkpt lat="47.192865964025259" lon="8.797338204458356">
1497        <ele>462.84765625</ele>
1498      </trkpt>
1499    </trkseg>
1500  </trk>
1501
1502  <trk>
1503    <name>Trampelpfad durch Wald</name>
1504    <extensions>
1505      <gpxx:TrackExtension xmlns:gpxx="http://www.garmin.com/xmlschemas/GpxExtensions/v3">
1506        <gpxx:DisplayColor>Magenta</gpxx:DisplayColor>
1507      </gpxx:TrackExtension>
1508    </extensions>
1509    <trkseg>
1510      <trkpt lat="47.185614863410592" lon="8.796475538983941">
1511        <ele>647.81640625</ele>
1512      </trkpt>
1513      <trkpt lat="47.185668759047985" lon="8.796514933928847">
1514        <ele>646.87109375</ele>
1515      </trkpt>
1516      <trkpt lat="47.185717290267348" lon="8.796522812917829">
1517        <ele>646.1953125</ele>
1518      </trkpt>
1519      <trkpt lat="47.185757691040635" lon="8.796562207862735">
1520        <ele>645.5859375</ele>
1521      </trkpt>
1522      <trkpt lat="47.185803540050983" lon="8.796577882021666">
1523        <ele>644.8203125</ele>
1524      </trkpt>
1525      <trkpt lat="47.185914013534784" lon="8.796581821516156">
1526        <ele>642.9765625</ele>
1527      </trkpt>
1528      <trkpt lat="47.185962544754148" lon="8.796625155955553">
1529        <ele>641.796875</ele>
1530      </trkpt>
1531      <trkpt lat="47.186081148684025" lon="8.796644853428006">
1532        <ele>639.4296875</ele>
1533      </trkpt>
1534      <trkpt lat="47.186186257749796" lon="8.7967315223068">
1535        <ele>636.4921875</ele>
1536      </trkpt>
1537      <trkpt lat="47.186264377087355" lon="8.796790530905128">
1538        <ele>634.1328125</ele>
1539      </trkpt>
1540      <trkpt lat="47.186399158090353" lon="8.796892957761884">
1541        <ele>629.55859375</ele>
1542      </trkpt>
1543      <trkpt lat="47.186458418145776" lon="8.796928413212299">
1544        <ele>627.55078125</ele>
1545      </trkpt>
1546      <trkpt lat="47.186606610193849" lon="8.796955989673734">
1547        <ele>624.0234375</ele>
1548      </trkpt>
1549    </trkseg>
1550  </trk>
1551
1552  <trk>
1553    <name>über Wiese am Waldrand</name>
1554    <extensions>
1555      <gpxx:TrackExtension xmlns:gpxx="http://www.garmin.com/xmlschemas/GpxExtensions/v3">
1556        <gpxx:DisplayColor>Red</gpxx:DisplayColor>
1557      </gpxx:TrackExtension>
1558    </extensions>
1559    <trkseg>
1560      <trkpt lat="47.18490038998425" lon="8.796944171190262">
1561        <ele>663.90234375</ele>
1562      </trkpt>
1563      <trkpt lat="47.184951603412628" lon="8.796790530905128">
1564        <ele>662.74609375</ele>
1565      </trkpt>
1566      <trkpt lat="47.184956967830658" lon="8.796640913933516">
1567        <ele>662.1328125</ele>
1568      </trkpt>
1569      <trkpt lat="47.184981275349855" lon="8.796550389379263">
1570        <ele>661.39453125</ele>
1571      </trkpt>
1572      <trkpt lat="47.185110608115792" lon="8.796479478478432">
1573        <ele>658.98828125</ele>
1574      </trkpt>
1575      <trkpt lat="47.185218399390578" lon="8.796408567577601">
1576        <ele>657.47265625</ele>
1577      </trkpt>
1578      <trkpt lat="47.185361227020621" lon="8.796420386061072">
1579        <ele>654.22265625</ele>
1580      </trkpt>
1581      <trkpt lat="47.185536408796906" lon="8.796440083533526">
1582        <ele>650.0703125</ele>
1583      </trkpt>
1584      <trkpt lat="47.185609163716435" lon="8.796475538983941">
1585        <ele>647.890625</ele>
1586      </trkpt>
1587    </trkseg>
1588  </trk>
1589
1590</gpx>
Note: See TracBrowser for help on using the repository browser.